^^
Station Historical Data
Daily Summary for July 10, 2017 Units:  English    Metric   Both
« Previous Day
Next Day »
Daily Weekly Monthly Yearly Custom
  High: Low: Average:
Temperature: 84.0 °F 61.8 °F 77.2 °F
Dew Point: 68.5 °F 53.4 °F 63.1 °F
Humidity: 91% 38% 64%
Wind Speed: 8.0mph 0.0mph 2.1mph
Wind Gust: 14.0mph - -
Wind- - SSW
Pressure: 30.08 in 29.95 in -
Precipitation: 0.06 in    
Historical Graphs
 
 
Tabular Data for July 10, 2017
Time Temperature Dew Point Pressure Wind Wind Speed Wind Gust Humidity Rainfall Rate (Hourly) Conditions
06:30 81.4 °F 53.4 °F 30.03 in SSW 5.0 mph 9.0 mph 38% 0.00 in FEW
06:45 61.8 °F 58.2 °F 30.06 in Calm   6.0 mph 88% 0.00 in FEW
07:00 63.4 °F 57.8 °F 30.06 in SSW 2.0 mph 4.0 mph 82% 0.00 in FEW
07:15 65.4 °F 58.3 °F 30.06 in Calm   4.0 mph 78% 0.00 in CLR
07:30 65.9 °F 58.8 °F 30.07 in Calm   1.0 mph 78% 0.00 in CLR
07:45 67.4 °F 59.2 °F 30.07 in Calm   2.0 mph 75% 0.00 in CLR
08:00 70.4 °F 59.7 °F 30.07 in Calm   2.0 mph 69% 0.00 in CLR
08:15 72.8 °F 59.9 °F 30.07 in Calm   2.0 mph 64% 0.00 in CLR
08:30 74.2 °F 59.5 °F 30.07 in SSW 1.0 mph 5.0 mph 60% 0.00 in CLR
08:45 74.6 °F 58.8 °F 30.08 in SSW 2.0 mph 8.0 mph 58% 0.00 in CLR
09:00 74.9 °F 58.1 °F 30.08 in SSW 5.0 mph 9.0 mph 56% 0.00 in CLR
09:15 74.4 °F 59.1 °F 30.08 in SSW 2.0 mph 9.0 mph 59% 0.00 in CLR
09:30 74.3 °F 59.5 °F 30.08 in SW 3.0 mph 8.0 mph 60% 0.00 in CLR
09:45 75.1 °F 60.8 °F 30.08 in SW 2.0 mph 6.0 mph 61% 0.00 in CLR
10:00 75.8 °F 61.9 °F 30.08 in SW 1.0 mph 5.0 mph 62% 0.00 in CLR
10:15 77.0 °F 61.5 °F 30.08 in SW 3.0 mph 8.0 mph 59% 0.00 in SCT
10:30 77.8 °F 61.3 °F 30.08 in SSW 2.0 mph 6.0 mph 57% 0.00 in SCT
10:45 78.3 °F 61.3 °F 30.07 in WSW 2.0 mph 5.0 mph 56% 0.00 in SCT
11:00 79.0 °F 60.4 °F 30.07 in SSE 3.0 mph 7.0 mph 53% 0.00 in SCT
11:15 79.7 °F 60.0 °F 30.07 in SW 3.0 mph 8.0 mph 51% 0.00 in FEW
11:30 80.2 °F 58.7 °F 30.07 in SSW 3.0 mph 10.0 mph 48% 0.00 in FEW
11:45 80.8 °F 58.1 °F 30.07 in SSW 5.0 mph 10.0 mph 46% 0.00 in FEW
12:00 80.9 °F 58.8 °F 30.08 in South 2.0 mph 12.0 mph 47% 0.00 in FEW
12:15 81.6 °F 59.4 °F 30.08 in South 2.0 mph 9.0 mph 47% 0.00 in BKN
12:30 80.7 °F 59.2 °F 30.07 in SW 1.0 mph 7.0 mph 48% 0.00 in BKN
12:45 81.6 °F 58.8 °F 30.06 in SSW 3.0 mph 7.0 mph 46% 0.00 in BKN
13:00 82.2 °F 59.4 °F 30.05 in SSW 2.0 mph 7.0 mph 46% 0.00 in BKN
13:15 83.0 °F 58.2 °F 30.05 in SSW 3.0 mph 9.0 mph 43% 0.00 in SCT
13:30 83.7 °F 58.1 °F 30.05 in SSW 1.0 mph 8.0 mph 42% 0.00 in SCT
13:45 83.4 °F 58.5 °F 30.04 in SW 5.0 mph 13.0 mph 43% 0.00 in SCT
14:00 83.7 °F 58.8 °F 30.04 in SW 3.0 mph 13.0 mph 43% 0.00 in SCT
14:15 83.8 °F 58.3 °F 30.04 in SSW 6.0 mph 12.0 mph 42% 0.00 in FEW
14:30 84.0 °F 59.7 °F 30.04 in SW 6.0 mph 14.0 mph 44% 0.00 in FEW
14:45 83.0 °F 60.1 °F 30.03 in WSW 8.0 mph 14.0 mph 46% 0.00 in FEW
15:00 83.7 °F 63.1 °F 30.02 in SSW 5.0 mph 12.0 mph 50% 0.00 in FEW
15:15 82.8 °F 63.4 °F 30.02 in SW 6.0 mph 14.0 mph 52% 0.00 in SCT
15:30 83.6 °F 64.7 °F 30.01 in SW 2.0 mph 12.0 mph 53% 0.00 in SCT
15:45 84.0 °F 65.0 °F 30.00 in SW 5.0 mph 8.0 mph 53% 0.00 in SCT
16:00 82.9 °F 65.6 °F 30.00 in SSW 1.0 mph 12.0 mph 56% 0.00 in SCT
16:15 82.3 °F 67.0 °F 29.99 in SW 1.0 mph 7.0 mph 60% 0.00 in SCT
16:30 82.1 °F 66.8 °F 29.99 in SSW 3.0 mph 9.0 mph 60% 0.00 in SCT
16:45 81.8 °F 66.6 °F 29.98 in SSW 2.0 mph 9.0 mph 60% 0.00 in SCT
17:00 81.0 °F 67.2 °F 29.97 in South 2.0 mph 7.0 mph 63% 0.00 in SCT
17:15 80.7 °F 67.4 °F 29.97 in SW 2.0 mph 9.0 mph 64% 0.00 in SCT
17:30 81.7 °F 67.4 °F 29.96 in WSW 2.0 mph 9.0 mph 62% 0.00 in SCT
17:45 81.1 °F 67.8 °F 29.96 in South 6.0 mph 12.0 mph 64% 0.00 in SCT
18:00 80.7 °F 67.4 °F 29.96 in SSW 2.0 mph 9.0 mph 64% 0.00 in SCT
18:15 80.3 °F 67.0 °F 29.95 in SW 3.0 mph 12.0 mph 64% 0.00 in BKN
18:30 79.7 °F 66.9 °F 29.95 in SW 2.0 mph 12.0 mph 65% 0.00 in BKN
18:45 79.4 °F 66.2 °F 29.96 in SSW 5.0 mph 8.0 mph 64% 0.00 in BKN
19:00 79.2 °F 65.5 °F 29.95 in SSW 2.0 mph 10.0 mph 63% 0.00 in BKN
19:15 80.0 °F 64.9 °F 29.96 in South 2.0 mph 8.0 mph 60% 0.00 in BKN
19:30 80.3 °F 65.1 °F 29.96 in SW 3.0 mph 8.0 mph 60% 0.00 in BKN
19:45 78.8 °F 65.1 °F 29.96 in SW 3.0 mph 8.0 mph 63% 0.00 in BKN
20:00 77.7 °F 65.0 °F 29.97 in Calm   5.0 mph 65% 0.00 in BKN
20:15 77.0 °F 65.2 °F 29.97 in Calm   3.0 mph 67% 0.00 in BKN
20:30 74.4 °F 67.0 °F 29.97 in Calm   9.0 mph 78% 0.00 in BKN
20:45 72.9 °F 67.4 °F 29.97 in Calm   3.0 mph 83% 0.00 in BKN
21:00 72.5 °F 67.4 °F 29.97 in SW 1.0 mph 3.0 mph 84% 0.00 in BKN
21:15 71.9 °F 67.8 °F 29.97 in Calm   3.0 mph 87% 0.06 in RA
21:30 71.4 °F 68.0 °F 29.97 in Calm   2.0 mph 89% 0.00 in SCT
21:45 71.3 °F 68.2 °F 29.98 in Calm   3.0 mph 90% 0.00 in SCT
22:00 71.1 °F 68.0 °F 29.98 in Calm   3.0 mph 90% 0.00 in SCT
22:15 71.0 °F 68.3 °F 29.98 in Calm   4.0 mph 91% 0.00 in -RA
22:30 71.2 °F 68.4 °F 29.98 in Calm   2.0 mph 91% 0.00 in -RA
22:45 71.1 °F 68.3 °F 29.97 in Calm   2.0 mph 91% 0.00 in -RA
23:00 71.1 °F 68.3 °F 29.98 in Calm   3.0 mph 91% 0.00 in -RA
23:15 71.4 °F 68.4 °F 29.98 in Calm   3.0 mph 90% 0.00 in CLR
23:30 71.3 °F 68.5 °F 29.98 in Calm   1.0 mph 91% 0.00 in CLR
23:45 71.6 °F 68.5 °F 29.98 in Calm   4.0 mph 90% 0.00 in CLR
TarryTown NY Weather
Compliments of Weather Underground - 1.25 mb